sensor_id;sensor_type;location;lat;lon;timestamp;temperature;humidity
52073;DHT22;38074;51.232;6.826;2023-08-31T00:02:50;23.90;51.20
52073;DHT22;38074;51.232;6.826;2023-08-31T00:10:06;23.90;51.20
52073;DHT22;38074;51.232;6.826;2023-08-31T00:17:24;23.90;51.20
52073;DHT22;38074;51.232;6.826;2023-08-31T00:24:39;23.90;51.20
52073;DHT22;38074;51.232;6.826;2023-08-31T00:31:55;23.90;51.10
52073;DHT22;38074;51.232;6.826;2023-08-31T00:39:13;23.90;51.20
52073;DHT22;38074;51.232;6.826;2023-08-31T00:46:28;23.90;51.80
52073;DHT22;38074;51.232;6.826;2023-08-31T00:53:44;23.90;51.10
52073;DHT22;38074;51.232;6.826;2023-08-31T01:01:22;23.90;51.00
52073;DHT22;38074;51.232;6.826;2023-08-31T01:15:55;23.90;51.70
52073;DHT22;38074;51.232;6.826;2023-08-31T01:23:13;23.90;51.00
52073;DHT22;38074;51.232;6.826;2023-08-31T01:30:31;23.90;51.00
52073;DHT22;38074;51.232;6.826;2023-08-31T01:45:02;23.90;50.90
52073;DHT22;38074;51.232;6.826;2023-08-31T01:52:19;23.90;50.90
52073;DHT22;38074;51.232;6.826;2023-08-31T01:59:34;23.80;50.80
52073;DHT22;38074;51.232;6.826;2023-08-31T02:06:50;23.90;50.80
52073;DHT22;38074;51.232;6.826;2023-08-31T02:14:06;23.90;50.80
52073;DHT22;38074;51.232;6.826;2023-08-31T02:21:22;23.80;50.70
52073;DHT22;38074;51.232;6.826;2023-08-31T02:28:38;23.80;50.80
52073;DHT22;38074;51.232;6.826;2023-08-31T02:35:54;23.80;50.60
52073;DHT22;38074;51.232;6.826;2023-08-31T02:43:09;23.80;50.60
52073;DHT22;38074;51.232;6.826;2023-08-31T02:50:25;23.80;50.50
52073;DHT22;38074;51.232;6.826;2023-08-31T02:57:40;23.80;50.50
52073;DHT22;38074;51.232;6.826;2023-08-31T03:04:56;23.80;50.40
52073;DHT22;38074;51.232;6.826;2023-08-31T03:12:11;23.80;50.40
52073;DHT22;38074;51.232;6.826;2023-08-31T03:19:27;23.80;50.40
52073;DHT22;38074;51.232;6.826;2023-08-31T03:26:42;23.80;50.40
52073;DHT22;38074;51.232;6.826;2023-08-31T03:33:58;23.80;50.40
52073;DHT22;38074;51.232;6.826;2023-08-31T03:41:13;23.80;50.30
52073;DHT22;38074;51.232;6.826;2023-08-31T03:48:29;23.80;50.20
52073;DHT22;38074;51.232;6.826;2023-08-31T03:55:45;23.80;50.10
52073;DHT22;38074;51.232;6.826;2023-08-31T04:03:00;23.80;50.00
52073;DHT22;38074;51.232;6.826;2023-08-31T04:10:16;23.80;50.20
52073;DHT22;38074;51.232;6.826;2023-08-31T04:17:31;23.80;50.10
52073;DHT22;38074;51.232;6.826;2023-08-31T04:24:47;23.80;50.00
52073;DHT22;38074;51.232;6.826;2023-08-31T04:32:02;23.80;50.10
52073;DHT22;38074;51.232;6.826;2023-08-31T04:39:18;23.80;50.00
52073;DHT22;38074;51.232;6.826;2023-08-31T04:46:33;23.80;50.00
52073;DHT22;38074;51.232;6.826;2023-08-31T04:53:49;23.80;49.90
52073;DHT22;38074;51.232;6.826;2023-08-31T05:01:04;23.80;49.80
52073;DHT22;38074;51.232;6.826;2023-08-31T05:08:20;23.80;49.70
52073;DHT22;38074;51.232;6.826;2023-08-31T05:15:35;23.80;49.60
52073;DHT22;38074;51.232;6.826;2023-08-31T05:22:51;23.80;49.70
52073;DHT22;38074;51.232;6.826;2023-08-31T05:30:07;23.70;49.60
52073;DHT22;38074;51.232;6.826;2023-08-31T05:37:22;23.80;49.60
52073;DHT22;38074;51.232;6.826;2023-08-31T05:44:38;23.80;49.60
52073;DHT22;38074;51.232;6.826;2023-08-31T05:51:54;23.80;49.80
52073;DHT22;38074;51.232;6.826;2023-08-31T05:59:09;23.80;50.70
52073;DHT22;38074;51.232;6.826;2023-08-31T06:06:25;23.90;50.70
52073;DHT22;38074;51.232;6.826;2023-08-31T06:13:40;23.90;51.40
52073;DHT22;38074;51.232;6.826;2023-08-31T06:20:56;23.90;50.60
52073;DHT22;38074;51.232;6.826;2023-08-31T06:28:11;23.80;50.90
52073;DHT22;38074;51.232;6.826;2023-08-31T06:35:27;23.80;50.90
52073;DHT22;38074;51.232;6.826;2023-08-31T06:42:43;23.80;51.10
52073;DHT22;38074;51.232;6.826;2023-08-31T06:49:58;23.80;51.20
52073;DHT22;38074;51.232;6.826;2023-08-31T06:57:14;23.80;51.30
52073;DHT22;38074;51.232;6.826;2023-08-31T07:04:29;23.80;51.10
52073;DHT22;38074;51.232;6.826;2023-08-31T07:11:45;23.80;51.10
52073;DHT22;38074;51.232;6.826;2023-08-31T07:19:00;23.80;51.10
52073;DHT22;38074;51.232;6.826;2023-08-31T07:26:16;23.90;51.10
52073;DHT22;38074;51.232;6.826;2023-08-31T07:33:32;23.80;51.30
52073;DHT22;38074;51.232;6.826;2023-08-31T07:40:47;23.90;51.30
52073;DHT22;38074;51.232;6.826;2023-08-31T07:48:03;23.90;51.20
52073;DHT22;38074;51.232;6.826;2023-08-31T07:55:20;23.90;51.30
52073;DHT22;38074;51.232;6.826;2023-08-31T08:02:35;23.90;51.30
52073;DHT22;38074;51.232;6.826;2023-08-31T08:09:51;23.90;51.30
52073;DHT22;38074;51.232;6.826;2023-08-31T08:17:06;23.90;51.40
52073;DHT22;38074;51.232;6.826;2023-08-31T08:24:22;23.80;51.30
52073;DHT22;38074;51.232;6.826;2023-08-31T08:31:37;23.90;51.30
52073;DHT22;38074;51.232;6.826;2023-08-31T08:38:53;23.90;51.30
52073;DHT22;38074;51.232;6.826;2023-08-31T08:46:08;23.80;51.20
52073;DHT22;38074;51.232;6.826;2023-08-31T08:53:24;23.90;51.30
52073;DHT22;38074;51.232;6.826;2023-08-31T09:00:40;23.80;51.20
52073;DHT22;38074;51.232;6.826;2023-08-31T09:15:20;23.80;51.30
52073;DHT22;38074;51.232;6.826;2023-08-31T09:22:36;23.80;51.20
52073;DHT22;38074;51.232;6.826;2023-08-31T09:29:54;23.70;50.10
52073;DHT22;38074;51.232;6.826;2023-08-31T09:37:10;23.70;50.90
52073;DHT22;38074;51.232;6.826;2023-08-31T09:44:25;23.80;51.10
52073;DHT22;38074;51.232;6.826;2023-08-31T09:51:44;23.70;51.00
52073;DHT22;38074;51.232;6.826;2023-08-31T09:59:03;23.80;51.00
52073;DHT22;38074;51.232;6.826;2023-08-31T10:06:18;23.80;50.90
52073;DHT22;38074;51.232;6.826;2023-08-31T10:13:36;23.70;50.60
52073;DHT22;38074;51.232;6.826;2023-08-31T10:20:55;23.80;50.60
52073;DHT22;38074;51.232;6.826;2023-08-31T10:28:20;23.70;50.40
52073;DHT22;38074;51.232;6.826;2023-08-31T10:43:16;23.70;50.30
52073;DHT22;38074;51.232;6.826;2023-08-31T10:50:33;23.70;50.30
52073;DHT22;38074;51.232;6.826;2023-08-31T10:57:56;23.80;50.20
52073;DHT22;38074;51.232;6.826;2023-08-31T11:05:15;23.60;50.00
52073;DHT22;38074;51.232;6.826;2023-08-31T11:12:31;23.60;49.40
52073;DHT22;38074;51.232;6.826;2023-08-31T11:19:47;23.50;49.90
52073;DHT22;38074;51.232;6.826;2023-08-31T11:27:06;23.70;50.00
52073;DHT22;38074;51.232;6.826;2023-08-31T11:34:22;23.80;49.90
52073;DHT22;38074;51.232;6.826;2023-08-31T11:41:37;23.90;49.90
52073;DHT22;38074;51.232;6.826;2023-08-31T11:48:58;23.90;49.90
52073;DHT22;38074;51.232;6.826;2023-08-31T11:56:14;23.90;50.00
52073;DHT22;38074;51.232;6.826;2023-08-31T12:03:37;24.00;50.20
52073;DHT22;38074;51.232;6.826;2023-08-31T12:10:56;24.00;50.30
52073;DHT22;38074;51.232;6.826;2023-08-31T12:18:15;24.00;50.40
52073;DHT22;38074;51.232;6.826;2023-08-31T12:25:30;24.10;50.60
52073;DHT22;38074;51.232;6.826;2023-08-31T12:32:46;24.10;50.70
52073;DHT22;38074;51.232;6.826;2023-08-31T12:40:02;24.10;50.90
52073;DHT22;38074;51.232;6.826;2023-08-31T12:47:21;24.10;51.20
52073;DHT22;38074;51.232;6.826;2023-08-31T12:54:36;24.10;51.20
52073;DHT22;38074;51.232;6.826;2023-08-31T13:01:52;24.00;51.20
52073;DHT22;38074;51.232;6.826;2023-08-31T13:09:08;24.00;51.20
52073;DHT22;38074;51.232;6.826;2023-08-31T13:16:24;24.10;51.30
52073;DHT22;38074;51.232;6.826;2023-08-31T13:23:39;24.00;51.30
52073;DHT22;38074;51.232;6.826;2023-08-31T13:30:58;24.00;50.00
52073;DHT22;38074;51.232;6.826;2023-08-31T13:38:15;23.80;50.60
52073;DHT22;38074;51.232;6.826;2023-08-31T13:45:31;23.90;50.50
52073;DHT22;38074;51.232;6.826;2023-08-31T13:52:46;24.00;50.40
52073;DHT22;38074;51.232;6.826;2023-08-31T14:00:02;24.00;50.00
52073;DHT22;38074;51.232;6.826;2023-08-31T14:07:19;24.10;49.80
52073;DHT22;38074;51.232;6.826;2023-08-31T14:14:35;24.00;49.50
52073;DHT22;38074;51.232;6.826;2023-08-31T14:21:51;23.90;49.70
52073;DHT22;38074;51.232;6.826;2023-08-31T14:29:08;24.00;49.90
52073;DHT22;38074;51.232;6.826;2023-08-31T14:36:25;24.00;49.50
52073;DHT22;38074;51.232;6.826;2023-08-31T14:43:41;24.10;49.60
52073;DHT22;38074;51.232;6.826;2023-08-31T14:50:56;24.10;49.70
52073;DHT22;38074;51.232;6.826;2023-08-31T14:58:14;24.00;49.50
52073;DHT22;38074;51.232;6.826;2023-08-31T15:05:29;24.00;49.60
52073;DHT22;38074;51.232;6.826;2023-08-31T15:12:45;24.10;49.60
52073;DHT22;38074;51.232;6.826;2023-08-31T15:20:01;24.10;49.50
52073;DHT22;38074;51.232;6.826;2023-08-31T15:27:16;24.10;49.60
52073;DHT22;38074;51.232;6.826;2023-08-31T15:34:32;24.20;49.80
52073;DHT22;38074;51.232;6.826;2023-08-31T15:41:48;24.10;49.50
52073;DHT22;38074;51.232;6.826;2023-08-31T15:49:04;24.10;50.30
52073;DHT22;38074;51.232;6.826;2023-08-31T15:56:19;24.10;50.20
52073;DHT22;38074;51.232;6.826;2023-08-31T16:03:35;24.20;50.30
52073;DHT22;38074;51.232;6.826;2023-08-31T16:10:51;24.20;50.40
52073;DHT22;38074;51.232;6.826;2023-08-31T16:18:06;24.20;50.50
52073;DHT22;38074;51.232;6.826;2023-08-31T16:25:22;24.20;50.60
52073;DHT22;38074;51.232;6.826;2023-08-31T16:32:37;24.20;50.60
52073;DHT22;38074;51.232;6.826;2023-08-31T16:39:53;24.20;50.70
52073;DHT22;38074;51.232;6.826;2023-08-31T16:47:08;24.20;50.80
52073;DHT22;38074;51.232;6.826;2023-08-31T16:54:25;24.20;51.10
52073;DHT22;38074;51.232;6.826;2023-08-31T17:01:41;24.20;51.20
52073;DHT22;38074;51.232;6.826;2023-08-31T17:08:56;24.30;51.50
52073;DHT22;38074;51.232;6.826;2023-08-31T17:16:12;24.30;51.40
52073;DHT22;38074;51.232;6.826;2023-08-31T17:23:27;24.30;51.50
52073;DHT22;38074;51.232;6.826;2023-08-31T17:30:43;24.20;51.60
52073;DHT22;38074;51.232;6.826;2023-08-31T17:37:58;24.30;51.70
52073;DHT22;38074;51.232;6.826;2023-08-31T17:45:14;24.30;51.70
52073;DHT22;38074;51.232;6.826;2023-08-31T17:52:29;24.20;51.80
52073;DHT22;38074;51.232;6.826;2023-08-31T17:59:48;24.20;52.10
52073;DHT22;38074;51.232;6.826;2023-08-31T18:07:04;24.20;52.00
52073;DHT22;38074;51.232;6.826;2023-08-31T18:14:22;24.20;52.00
52073;DHT22;38074;51.232;6.826;2023-08-31T18:21:38;24.20;52.10
52073;DHT22;38074;51.232;6.826;2023-08-31T18:28:53;24.20;52.00
52073;DHT22;38074;51.232;6.826;2023-08-31T18:36:09;24.20;52.10
52073;DHT22;38074;51.232;6.826;2023-08-31T18:43:25;24.20;52.30
52073;DHT22;38074;51.232;6.826;2023-08-31T18:50:41;23.90;52.50
52073;DHT22;38074;51.232;6.826;2023-08-31T18:57:56;23.90;52.90
52073;DHT22;38074;51.232;6.826;2023-08-31T19:05:12;24.00;52.90
52073;DHT22;38074;51.232;6.826;2023-08-31T19:12:28;24.10;52.90
52073;DHT22;38074;51.232;6.826;2023-08-31T19:19:43;24.00;53.10
52073;DHT22;38074;51.232;6.826;2023-08-31T19:26:59;24.00;53.00
52073;DHT22;38074;51.232;6.826;2023-08-31T19:34:15;24.00;53.10
52073;DHT22;38074;51.232;6.826;2023-08-31T19:41:31;24.00;53.10
52073;DHT22;38074;51.232;6.826;2023-08-31T19:48:46;24.00;53.10
52073;DHT22;38074;51.232;6.826;2023-08-31T19:56:05;24.10;53.20
52073;DHT22;38074;51.232;6.826;2023-08-31T20:03:21;24.10;53.20
52073;DHT22;38074;51.232;6.826;2023-08-31T20:10:37;24.00;53.30
52073;DHT22;38074;51.232;6.826;2023-08-31T20:17:53;24.10;53.30
52073;DHT22;38074;51.232;6.826;2023-08-31T20:25:08;24.00;53.30
52073;DHT22;38074;51.232;6.826;2023-08-31T20:32:24;24.00;53.10
52073;DHT22;38074;51.232;6.826;2023-08-31T20:39:40;24.10;53.20
52073;DHT22;38074;51.232;6.826;2023-08-31T20:46:59;24.00;53.10
52073;DHT22;38074;51.232;6.826;2023-08-31T20:54:14;24.00;52.90
52073;DHT22;38074;51.232;6.826;2023-08-31T21:01:30;24.00;52.80
52073;DHT22;38074;51.232;6.826;2023-08-31T21:08:45;23.90;52.60
52073;DHT22;38074;51.232;6.826;2023-08-31T21:16:04;23.90;52.50
52073;DHT22;38074;51.232;6.826;2023-08-31T21:23:20;23.90;52.50
52073;DHT22;38074;51.232;6.826;2023-08-31T21:30:35;23.90;52.50
52073;DHT22;38074;51.232;6.826;2023-08-31T21:37:52;23.90;52.50
52073;DHT22;38074;51.232;6.826;2023-08-31T21:45:07;23.90;52.60
52073;DHT22;38074;51.232;6.826;2023-08-31T21:52:23;24.00;52.60
52073;DHT22;38074;51.232;6.826;2023-08-31T21:59:38;23.90;52.50
52073;DHT22;38074;51.232;6.826;2023-08-31T22:06:54;24.00;52.50
52073;DHT22;38074;51.232;6.826;2023-08-31T22:14:10;24.00;52.60
52073;DHT22;38074;51.232;6.826;2023-08-31T22:21:26;23.90;52.50
52073;DHT22;38074;51.232;6.826;2023-08-31T22:28:44;24.00;52.60
52073;DHT22;38074;51.232;6.826;2023-08-31T22:36:01;24.00;52.60
52073;DHT22;38074;51.232;6.826;2023-08-31T22:43:16;23.90;52.60
52073;DHT22;38074;51.232;6.826;2023-08-31T22:50:31;23.90;52.60
52073;DHT22;38074;51.232;6.826;2023-08-31T22:57:47;23.80;52.50
52073;DHT22;38074;51.232;6.826;2023-08-31T23:05:03;23.80;52.50
52073;DHT22;38074;51.232;6.826;2023-08-31T23:12:19;23.80;52.50
52073;DHT22;38074;51.232;6.826;2023-08-31T23:19:34;23.80;52.60
52073;DHT22;38074;51.232;6.826;2023-08-31T23:26:50;23.80;52.50
52073;DHT22;38074;51.232;6.826;2023-08-31T23:34:05;23.80;52.50
52073;DHT22;38074;51.232;6.826;2023-08-31T23:41:21;23.80;52.60
52073;DHT22;38074;51.232;6.826;2023-08-31T23:48:36;23.80;52.60
52073;DHT22;38074;51.232;6.826;2023-08-31T23:55:52;23.80;52.60
